Time;durP1;ratioP1;P1;durP2;ratioP2;P2;SDS_P1;SDS_P2;PMS_P1;PMS_P2;Temp;Humidity;BMP_temperature;BMP_pressure;BME280_temperature;BME280_humidity;BME280_pressure;Samples;Min_cycle;Max_cycle;Signal;HPM_P1;HPM_P2
2024/01/15 00:02:09;;;;;;;28.67;9.10;;;-1.10;98.00;;;;;;5051882;28;20832;-68
2024/01/15 00:04:38;;;;;;;35.63;9.40;;;-1.10;98.00;;;;;;5051830;28;21079;-67
2024/01/15 00:07:06;;;;;;;20.67;8.40;;;-1.10;98.00;;;;;;5033802;28;20552;-68
2024/01/15 00:09:33;;;;;;;31.67;9.60;;;-1.10;98.00;;;;;;5034128;28;20441;-67
2024/01/15 00:12:00;;;;;;;26.23;7.83;;;-1.00;98.00;;;;;;5021444;28;20459;-68
2024/01/15 00:14:28;;;;;;;24.80;8.40;;;-1.10;98.00;;;;;;5055668;28;20467;-67
2024/01/15 00:16:57;;;;;;;23.37;7.80;;;-1.20;98.00;;;;;;5054847;28;20447;-67
2024/01/15 00:19:26;;;;;;;24.73;8.83;;;-1.20;98.00;;;;;;5037512;28;20471;-68
2024/01/15 00:21:54;;;;;;;30.70;10.70;;;-1.00;98.00;;;;;;5055462;28;20469;-68
2024/01/15 00:24:21;;;;;;;26.23;8.33;;;-1.10;98.00;;;;;;5054983;28;20448;-67
2024/01/15 00:26:49;;;;;;;32.63;10.00;;;-1.20;98.00;;;;;;5054972;28;20464;-67
2024/01/15 00:29:16;;;;;;;30.10;10.50;;;-1.20;98.00;;;;;;5037285;28;20912;-68
2024/01/15 00:31:43;;;;;;;35.77;9.73;;;-1.20;98.00;;;;;;5037335;28;20455;-68
2024/01/15 00:34:10;;;;;;;30.47;9.30;;;-1.30;98.00;;;;;;5055080;28;20463;-68
2024/01/15 00:36:38;;;;;;;40.43;11.90;;;-1.40;98.00;;;;;;5054700;28;20467;-67
2024/01/15 00:39:06;;;;;;;29.73;9.43;;;-1.40;98.00;;;;;;5054691;28;21017;-68
2024/01/15 00:41:33;;;;;;;29.30;8.93;;;-1.40;98.00;;;;;;5054935;28;20478;-67
2024/01/15 00:44:00;;;;;;;29.87;8.63;;;-1.40;98.00;;;;;;5054672;28;20461;-68
2024/01/15 00:46:27;;;;;;;31.63;9.60;;;-1.30;98.00;;;;;;5036992;28;20444;-68
2024/01/15 00:48:54;;;;;;;35.40;9.17;;;-1.20;98.00;;;;;;5054621;28;20495;-67
2024/01/15 00:51:21;;;;;;;30.10;8.77;;;-1.10;98.00;;;;;;5054293;28;21067;-67
2024/01/15 00:53:50;;;;;;;27.90;8.40;;;-1.10;98.00;;;;;;5054847;28;20535;-67
2024/01/15 00:56:17;;;;;;;20.80;8.17;;;-1.10;98.00;;;;;;5054868;28;20456;-67
2024/01/15 00:58:44;;;;;;;23.63;8.40;;;-1.00;98.00;;;;;;5036917;28;20467;-67
2024/01/15 01:01:12;;;;;;;28.17;8.50;;;-1.00;98.00;;;;;;5054369;28;20455;-67
2024/01/15 01:03:39;;;;;;;29.57;7.77;;;-1.10;98.00;;;;;;5054476;28;20469;-68
2024/01/15 01:06:06;;;;;;;32.73;9.70;;;-1.20;98.00;;;;;;5054437;28;20831;-67
2024/01/15 01:08:33;;;;;;;24.93;7.60;;;-1.20;98.00;;;;;;5054241;28;21092;-67
2024/01/15 01:11:02;;;;;;;26.40;8.83;;;-1.30;98.00;;;;;;5054430;28;20457;-67
2024/01/15 01:13:29;;;;;;;23.20;7.40;;;-1.20;98.00;;;;;;5036213;28;20460;-68
2024/01/15 01:15:56;;;;;;;31.47;9.43;;;-1.10;98.00;;;;;;5054148;28;20452;-67
2024/01/15 01:18:23;;;;;;;25.97;9.37;;;-1.00;98.00;;;;;;5036642;28;20464;-67
2024/01/15 01:20:51;;;;;;;28.00;9.50;;;-1.00;98.00;;;;;;5053873;28;20953;-68
2024/01/15 01:23:18;;;;;;;30.13;8.40;;;-1.00;98.00;;;;;;5053827;28;20452;-67
2024/01/15 01:25:45;;;;;;;26.33;8.23;;;-1.10;98.00;;;;;;5053896;28;20458;-68
2024/01/15 01:28:13;;;;;;;24.60;8.40;;;-1.00;98.00;;;;;;5053837;28;20495;-67
2024/01/15 01:30:41;;;;;;;29.37;8.73;;;-0.80;98.00;;;;;;5054000;28;20460;-67
2024/01/15 01:33:09;;;;;;;28.97;8.40;;;-0.90;98.00;;;;;;5053952;28;20456;-67
2024/01/15 01:35:36;;;;;;;25.63;8.40;;;-0.90;98.00;;;;;;5053879;28;20875;-67
2024/01/15 01:38:03;;;;;;;26.33;8.30;;;-0.90;98.00;;;;;;5035150;28;20475;-67
2024/01/15 01:40:30;;;;;;;26.87;8.33;;;-0.90;98.00;;;;;;5035608;28;20448;-67
2024/01/15 01:42:57;;;;;;;25.50;8.03;;;-0.90;98.00;;;;;;5053186;28;20968;-67
2024/01/15 01:45:26;;;;;;;28.17;7.80;;;-1.00;98.00;;;;;;5053791;28;20456;-68
2024/01/15 01:47:53;;;;;;;22.60;8.03;;;-0.90;98.00;;;;;;5053598;28;20480;-68
2024/01/15 01:50:21;;;;;;;24.20;8.47;;;-0.90;98.00;;;;;;5036493;28;20463;-68
2024/01/15 01:52:49;;;;;;;36.83;9.33;;;-0.80;98.00;;;;;;5054012;28;20864;-67
2024/01/15 01:55:16;;;;;;;22.93;8.80;;;-0.80;98.00;;;;;;5053692;28;20452;-67
2024/01/15 01:57:44;;;;;;;35.33;10.87;;;-0.70;98.00;;;;;;5052632;28;20469;-67
2024/01/15 02:00:14;;;;;;;34.40;11.20;;;-0.60;98.00;;;;;;5052738;28;20959;-67
2024/01/15 02:02:43;;;;;;;32.60;9.37;;;-0.60;98.00;;;;;;5035984;28;20468;-67
2024/01/15 02:05:11;;;;;;;32.17;9.03;;;-0.60;98.00;;;;;;5052965;28;20455;-67
2024/01/15 02:07:38;;;;;;;27.37;8.10;;;-0.50;98.00;;;;;;5053118;28;20456;-67
2024/01/15 02:10:06;;;;;;;24.80;8.50;;;-0.40;98.00;;;;;;5053181;28;20468;-67
2024/01/15 02:12:33;;;;;;;27.23;9.07;;;-0.40;98.00;;;;;;5053079;28;20523;-68
2024/01/15 02:15:00;;;;;;;21.43;7.27;;;-0.50;98.00;;;;;;5018707;28;20464;-67
2024/01/15 02:17:27;;;;;;;23.17;7.20;;;-0.60;98.00;;;;;;5052343;28;20453;-67
2024/01/15 02:19:56;;;;;;;30.47;8.30;;;-0.60;98.00;;;;;;5052723;28;20457;-68
2024/01/15 02:22:23;;;;;;;29.37;8.30;;;-0.50;98.00;;;;;;5035076;28;20484;-67
2024/01/15 02:24:51;;;;;;;21.00;6.60;;;-0.60;98.00;;;;;;5052970;28;20453;-68
2024/01/15 02:27:19;;;;;;;20.73;5.80;;;-0.70;98.00;;;;;;5052886;28;21004;-67
2024/01/15 02:29:47;;;;;;;18.30;7.20;;;-0.70;98.00;;;;;;5051647;28;20563;-67
2024/01/15 02:32:14;;;;;;;18.67;5.77;;;-0.60;98.00;;;;;;5034687;28;20965;-67
2024/01/15 02:34:45;;;;;;;25.00;7.30;;;-0.50;98.00;;;;;;5052043;28;20476;-67
2024/01/15 02:37:12;;;;;;;18.60;6.23;;;-0.50;98.00;;;;;;5052591;28;20854;-67
2024/01/15 02:39:39;;;;;;;17.00;5.90;;;-0.40;98.00;;;;;;5052615;28;20955;-67
2024/01/15 02:42:08;;;;;;;24.77;7.37;;;-0.30;98.00;;;;;;5052207;28;20976;-67
2024/01/15 02:44:35;;;;;;;19.20;7.03;;;-0.20;98.00;;;;;;5052627;28;20775;-67
2024/01/15 02:47:02;;;;;;;21.80;7.30;;;-0.10;98.00;;;;;;5052467;28;20452;-67
2024/01/15 02:49:29;;;;;;;23.20;7.70;;;-0.20;98.00;;;;;;5052318;28;20810;-67
2024/01/15 02:51:56;;;;;;;15.37;6.93;;;-0.20;98.00;;;;;;5052336;28;20461;-67
2024/01/15 02:54:23;;;;;;;18.80;6.53;;;-0.20;98.00;;;;;;5052453;28;20448;-67
2024/01/15 02:56:51;;;;;;;13.20;4.60;;;-0.20;98.00;;;;;;5034615;28;20445;-68
2024/01/15 02:59:19;;;;;;;21.57;5.63;;;-0.20;98.00;;;;;;5051003;28;20461;-67
2024/01/15 03:01:46;;;;;;;14.47;5.57;;;-0.20;98.00;;;;;;5034272;28;20479;-67
2024/01/15 03:04:13;;;;;;;15.83;6.23;;;-0.10;98.00;;;;;;5052188;28;20449;-68
2024/01/15 03:06:40;;;;;;;21.60;7.00;;;-0.10;98.00;;;;;;5034418;28;20452;-66
2024/01/15 03:09:08;;;;;;;17.17;5.40;;;-0.10;98.00;;;;;;5052084;28;20491;-67
2024/01/15 03:11:38;;;;;;;13.50;6.50;;;-0.10;98.00;;;;;;5034493;28;20545;-67
2024/01/15 03:14:06;;;;;;;20.07;6.97;;;0.00;98.00;;;;;;5052149;28;20492;-67
2024/01/15 03:16:34;;;;;;;15.67;6.17;;;0.00;98.00;;;;;;5051914;28;20448;-68
2024/01/15 03:19:02;;;;;;;19.73;6.93;;;-0.10;98.00;;;;;;5051887;28;20465;-67
2024/01/15 03:21:29;;;;;;;25.13;6.47;;;0.00;98.00;;;;;;5052169;28;20942;-67
2024/01/15 03:23:56;;;;;;;22.03;7.00;;;0.10;98.00;;;;;;5034337;28;20511;-67
2024/01/15 03:26:24;;;;;;;18.60;6.87;;;0.20;98.00;;;;;;5051401;28;21143;-67
2024/01/15 03:28:51;;;;;;;20.70;6.60;;;0.10;98.00;;;;;;5034116;28;20487;-67
2024/01/15 03:31:18;;;;;;;12.33;5.43;;;0.00;98.00;;;;;;5051860;28;20951;-67
2024/01/15 03:33:47;;;;;;;19.80;6.60;;;-0.10;98.00;;;;;;5051931;28;20461;-67
2024/01/15 03:36:14;;;;;;;18.27;5.97;;;0.00;98.00;;;;;;5051473;28;20464;-67
2024/01/15 03:38:43;;;;;;;13.60;4.57;;;0.00;98.00;;;;;;5033852;28;20493;-67
2024/01/15 03:41:10;;;;;;;10.90;5.10;;;0.00;98.00;;;;;;5034177;28;20874;-67
2024/01/15 03:43:37;;;;;;;12.80;4.80;;;-0.10;98.00;;;;;;5052090;28;20780;-67
2024/01/15 03:46:05;;;;;;;17.63;5.00;;;-0.10;98.00;;;;;;5038100;28;20461;-68
2024/01/15 03:48:32;;;;;;;15.00;5.17;;;-0.20;98.00;;;;;;5055160;28;20567;-67
2024/01/15 03:51:01;;;;;;;11.10;5.00;;;-0.10;98.00;;;;;;5038080;28;20863;-67
2024/01/15 03:53:29;;;;;;;16.83;5.90;;;-0.10;98.00;;;;;;5055547;28;20456;-67
2024/01/15 03:55:56;;;;;;;11.83;4.97;;;0.00;98.00;;;;;;5055871;28;20801;-67
2024/01/15 03:58:23;;;;;;;10.40;4.77;;;0.10;98.00;;;;;;5054241;28;21016;-67
2024/01/15 04:00:53;;;;;;;13.63;5.10;;;0.10;98.00;;;;;;5055770;28;20456;-67
2024/01/15 04:03:20;;;;;;;10.63;4.33;;;0.00;98.00;;;;;;5055591;28;20448;-67
2024/01/15 04:05:47;;;;;;;15.47;5.33;;;0.00;98.00;;;;;;5055499;28;20831;-67
2024/01/15 04:08:16;;;;;;;12.57;5.30;;;0.00;98.00;;;;;;5054857;28;20465;-67
2024/01/15 04:10:43;;;;;;;13.90;4.80;;;0.10;98.00;;;;;;5055355;28;20452;-67
2024/01/15 04:13:10;;;;;;;12.47;4.60;;;0.10;98.00;;;;;;5055376;28;20453;-67
2024/01/15 04:15:40;;;;;;;14.80;4.93;;;0.00;98.00;;;;;;5055721;28;20448;-67
2024/01/15 04:18:07;;;;;;;14.67;4.70;;;0.00;98.00;;;;;;5055010;28;20480;-67
2024/01/15 04:20:34;;;;;;;8.17;4.40;;;0.00;98.00;;;;;;5055178;28;20807;-67
2024/01/15 04:23:01;;;;;;;12.60;5.30;;;0.10;98.00;;;;;;5054539;28;20456;-67
2024/01/15 04:25:30;;;;;;;14.10;4.33;;;0.10;98.00;;;;;;5037525;28;21117;-67
2024/01/15 04:27:57;;;;;;;12.53;5.00;;;0.10;98.00;;;;;;5055046;28;20902;-67
2024/01/15 04:30:24;;;;;;;12.43;4.47;;;0.10;98.00;;;;;;5037033;28;20491;-67
2024/01/15 04:32:54;;;;;;;14.00;4.67;;;0.00;98.00;;;;;;5054940;28;20453;-67
2024/01/15 04:35:21;;;;;;;13.97;4.40;;;0.00;98.00;;;;;;5054630;28;20457;-68
2024/01/15 04:37:50;;;;;;;11.03;4.43;;;0.00;98.00;;;;;;5037315;28;20463;-67
2024/01/15 04:40:17;;;;;;;11.97;4.50;;;0.00;98.00;;;;;;5037026;28;20452;-67
2024/01/15 04:42:46;;;;;;;18.23;4.70;;;0.10;98.00;;;;;;5054810;28;20464;-67
2024/01/15 04:45:13;;;;;;;16.67;5.73;;;0.00;98.00;;;;;;5054668;28;20491;-67
2024/01/15 04:47:40;;;;;;;13.20;4.53;;;0.00;98.00;;;;;;5054458;28;20488;-67
2024/01/15 04:50:08;;;;;;;13.17;4.17;;;0.00;98.00;;;;;;5054243;28;20488;-67
2024/01/15 04:52:35;;;;;;;15.13;4.87;;;0.10;98.00;;;;;;5054907;28;20466;-67
2024/01/15 04:55:02;;;;;;;11.80;4.03;;;0.10;98.00;;;;;;5053842;28;20498;-67
2024/01/15 04:57:29;;;;;;;11.43;4.03;;;0.10;98.00;;;;;;5052662;28;20805;-67
2024/01/15 04:59:59;;;;;;;11.00;4.70;;;0.20;98.00;;;;;;5054637;28;21061;-67
2024/01/15 05:02:26;;;;;;;12.70;4.80;;;0.30;98.00;;;;;;5054431;28;20468;-67
2024/01/15 05:04:53;;;;;;;12.47;5.00;;;0.40;98.00;;;;;;5054650;28;20845;-67
2024/01/15 05:07:20;;;;;;;12.83;4.23;;;0.40;98.00;;;;;;5036594;28;20463;-67
2024/01/15 05:09:47;;;;;;;11.07;4.33;;;0.40;98.00;;;;;;5053821;28;20543;-68
2024/01/15 05:12:24;;;;;;;10.23;4.03;;;0.50;98.00;;;;;;5053943;28;20449;-67
2024/01/15 05:14:51;;;;;;;10.43;4.30;;;0.50;98.00;;;;;;5054655;28;20464;-67
2024/01/15 05:17:20;;;;;;;13.10;4.20;;;0.50;98.00;;;;;;5054062;28;20477;-67
2024/01/15 05:19:47;;;;;;;12.13;4.77;;;0.50;98.00;;;;;;5054474;28;20449;-67
2024/01/15 05:22:14;;;;;;;13.43;5.33;;;0.70;98.00;;;;;;5054130;28;20473;-68
2024/01/15 05:24:41;;;;;;;14.27;5.33;;;0.80;98.00;;;;;;5052768;28;20552;-67
2024/01/15 05:27:08;;;;;;;16.20;5.20;;;0.80;98.00;;;;;;5053029;28;20454;-68
2024/01/15 05:29:36;;;;;;;23.57;7.10;;;0.70;98.00;;;;;;5054100;28;21010;-67
2024/01/15 05:32:04;;;;;;;17.90;6.13;;;0.50;98.00;;;;;;5053019;28;20457;-67
2024/01/15 05:34:33;;;;;;;18.30;6.93;;;0.60;98.00;;;;;;5054068;28;20828;-68
2024/01/15 05:37:01;;;;;;;24.43;7.13;;;0.50;98.00;;;;;;5052905;28;21005;-68
2024/01/15 05:39:28;;;;;;;18.93;6.53;;;0.40;98.00;;;;;;5052295;28;20453;-68
2024/01/15 05:41:55;;;;;;;18.43;6.60;;;0.30;98.00;;;;;;5055059;28;20454;-67
2024/01/15 05:44:22;;;;;;;14.83;6.37;;;0.30;98.00;;;;;;5053439;28;20453;-67
2024/01/15 05:46:49;;;;;;;15.57;6.07;;;0.40;98.00;;;;;;5053618;28;20449;-67
2024/01/15 05:49:16;;;;;;;21.03;5.90;;;0.40;98.00;;;;;;5053266;28;20477;-67
2024/01/15 05:51:46;;;;;;;12.40;5.20;;;0.40;98.00;;;;;;5052225;28;20467;-67
2024/01/15 05:54:13;;;;;;;12.27;4.03;;;0.40;98.00;;;;;;5052225;28;20446;-67
2024/01/15 05:56:40;;;;;;;8.90;4.10;;;0.40;98.00;;;;;;5052317;28;20866;-68
2024/01/15 05:59:07;;;;;;;15.10;4.47;;;0.40;98.00;;;;;;5053283;28;20457;-68
2024/01/15 06:01:34;;;;;;;15.17;4.50;;;0.50;98.00;;;;;;5053236;28;20514;-67
2024/01/15 06:04:01;;;;;;;9.77;3.87;;;0.40;98.00;;;;;;5051934;28;20461;-67
2024/01/15 06:06:28;;;;;;;10.00;3.70;;;0.60;98.00;;;;;;5052170;28;21076;-67
2024/01/15 06:08:59;;;;;;;11.33;4.60;;;0.60;98.00;;;;;;5052759;28;20445;-67
2024/01/15 06:11:31;;;;;;;10.90;4.43;;;0.70;98.00;;;;;;5052856;28;20923;-67
2024/01/15 06:14:00;;;;;;;9.97;4.20;;;0.70;98.00;;;;;;5052352;28;20451;-67
2024/01/15 06:16:27;;;;;;;13.97;4.93;;;0.60;98.00;;;;;;5052358;28;20461;-67
2024/01/15 06:18:56;;;;;;;12.97;4.57;;;0.60;98.00;;;;;;5052239;28;20491;-68
2024/01/15 06:21:24;;;;;;;10.63;4.30;;;0.70;98.00;;;;;;5052899;28;20500;-67
2024/01/15 06:23:51;;;;;;;13.03;4.43;;;0.80;98.00;;;;;;5051545;28;20461;-67
2024/01/15 06:26:19;;;;;;;11.50;4.77;;;0.90;98.00;;;;;;5052872;28;20483;-67
2024/01/15 06:28:46;;;;;;;14.37;4.97;;;0.90;98.00;;;;;;5052882;28;20480;-67
2024/01/15 06:31:14;;;;;;;12.63;4.63;;;0.80;98.00;;;;;;5052722;28;20487;-67
2024/01/15 06:33:41;;;;;;;12.93;4.90;;;0.70;98.00;;;;;;5051506;28;20942;-67
2024/01/15 06:36:10;;;;;;;11.10;3.90;;;0.70;98.00;;;;;;5052614;28;20455;-67
2024/01/15 06:38:37;;;;;;;16.83;5.13;;;0.60;98.00;;;;;;5052515;28;20476;-67
2024/01/15 06:41:04;;;;;;;23.43;5.30;;;0.60;98.00;;;;;;5052254;28;20457;-67
2024/01/15 06:43:33;;;;;;;19.27;4.77;;;0.50;98.00;;;;;;5052610;28;20453;-67
2024/01/15 06:46:00;;;;;;;10.03;4.87;;;0.50;98.00;;;;;;5052213;28;20483;-68
2024/01/15 06:48:29;;;;;;;14.40;4.77;;;0.50;98.00;;;;;;5052225;28;20462;-67
2024/01/15 06:50:56;;;;;;;14.23;4.87;;;0.50;98.00;;;;;;5050851;28;20542;-67
2024/01/15 06:53:26;;;;;;;12.23;4.37;;;0.60;98.00;;;;;;5052201;28;20800;-68
2024/01/15 06:55:53;;;;;;;17.23;5.53;;;0.60;98.00;;;;;;5052394;28;20963;-68
2024/01/15 06:58:20;;;;;;;10.33;4.90;;;0.60;98.00;;;;;;5052329;28;20448;-67
2024/01/15 07:00:48;;;;;;;13.03;4.20;;;0.60;98.00;;;;;;5051261;28;20460;-67
2024/01/15 07:03:15;;;;;;;11.33;4.63;;;0.60;98.00;;;;;;5052240;28;20468;-68
2024/01/15 07:05:43;;;;;;;13.83;4.87;;;0.60;98.00;;;;;;5051280;28;20464;-68
2024/01/15 07:08:11;;;;;;;8.33;3.80;;;0.60;98.00;;;;;;5052275;28;20957;-67
2024/01/15 07:10:38;;;;;;;16.13;4.30;;;0.70;98.00;;;;;;5051183;28;20484;-68
2024/01/15 07:13:05;;;;;;;9.57;4.50;;;0.70;98.00;;;;;;5049131;28;20863;-68
2024/01/15 07:15:33;;;;;;;12.40;4.37;;;0.80;98.00;;;;;;5052035;28;20896;-68
2024/01/15 07:18:01;;;;;;;13.80;4.77;;;0.80;98.00;;;;;;5050723;28;20460;-67
2024/01/15 07:20:28;;;;;;;11.27;4.50;;;0.90;98.00;;;;;;5051602;28;20458;-68
2024/01/15 07:22:56;;;;;;;14.60;4.80;;;0.90;98.00;;;;;;5052219;28;20457;-66
2024/01/15 07:25:25;;;;;;;13.30;4.83;;;0.90;98.00;;;;;;5050839;28;20464;-66
2024/01/15 07:27:54;;;;;;;10.77;4.37;;;1.00;98.00;;;;;;5052031;28;20483;-66
2024/01/15 07:30:21;;;;;;;10.00;4.30;;;1.00;98.00;;;;;;5052021;28;20537;-66
2024/01/15 07:32:56;;;;;;;9.63;4.33;;;0.90;98.00;;;;;;5052071;28;20566;-67
2024/01/15 07:35:24;;;;;;;12.53;4.70;;;0.90;98.00;;;;;;5051868;28;20463;-68
2024/01/15 07:37:51;;;;;;;9.30;3.83;;;1.00;98.00;;;;;;5051669;28;20839;-68
2024/01/15 07:40:19;;;;;;;14.13;4.93;;;1.00;98.00;;;;;;5051886;28;20456;-67
2024/01/15 07:42:47;;;;;;;9.10;4.77;;;1.00;98.00;;;;;;5051979;28;20538;-67
2024/01/15 07:45:14;;;;;;;16.40;4.90;;;1.00;98.00;;;;;;5051596;28;20453;-67
2024/01/15 07:47:41;;;;;;;10.20;4.27;;;1.00;98.00;;;;;;5051892;28;20503;-67
2024/01/15 07:50:08;;;;;;;16.80;5.40;;;1.00;98.00;;;;;;5051711;28;20477;-66
2024/01/15 07:52:37;;;;;;;12.60;4.90;;;1.00;98.00;;;;;;5051405;28;20491;-67
2024/01/15 07:55:05;;;;;;;12.67;4.60;;;1.00;98.00;;;;;;5051194;28;20457;-67
2024/01/15 07:57:32;;;;;;;10.07;4.27;;;1.10;98.00;;;;;;5051520;28;20461;-66
2024/01/15 07:59:59;;;;;;;12.50;4.87;;;1.10;98.00;;;;;;5051717;28;20454;-67
2024/01/15 08:02:26;;;;;;;12.47;4.80;;;1.10;98.00;;;;;;5051496;28;20458;-67
2024/01/15 08:04:53;;;;;;;18.20;4.97;;;1.00;98.00;;;;;;5051616;28;20461;-67
2024/01/15 08:07:20;;;;;;;11.50;4.50;;;1.00;98.00;;;;;;5050107;28;20458;-66
2024/01/15 08:09:49;;;;;;;8.30;3.60;;;1.10;98.00;;;;;;5050373;28;20481;-66
2024/01/15 08:12:16;;;;;;;10.10;4.30;;;1.20;98.00;;;;;;5049963;28;20943;-66
2024/01/15 08:14:43;;;;;;;8.83;3.90;;;1.20;98.00;;;;;;5049472;28;20453;-67
2024/01/15 08:17:13;;;;;;;9.70;4.23;;;1.10;98.00;;;;;;5049402;28;20452;-66
2024/01/15 08:19:41;;;;;;;10.50;4.60;;;1.20;98.00;;;;;;5048136;28;20454;-66
2024/01/15 08:22:08;;;;;;;10.57;3.93;;;1.20;98.00;;;;;;5049539;28;20483;-66
2024/01/15 08:24:35;;;;;;;12.30;4.33;;;1.20;98.00;;;;;;5049737;28;20461;-66
2024/01/15 08:27:04;;;;;;;8.83;4.10;;;1.20;98.00;;;;;;5049271;28;20457;-66
2024/01/15 08:29:33;;;;;;;11.13;4.13;;;1.20;98.00;;;;;;5051114;28;20544;-65
2024/01/15 08:32:00;;;;;;;6.40;3.30;;;1.40;98.00;;;;;;5054596;28;20453;-65
2024/01/15 08:34:27;;;;;;;11.30;4.40;;;2.60;98.00;;;;;;5054901;28;20457;-66
2024/01/15 08:36:54;;;;;;;10.40;4.47;;;3.30;98.00;;;;;;5054894;28;20465;-67
2024/01/15 08:39:21;;;;;;;11.60;4.17;;;3.00;98.00;;;;;;5055067;28;20453;-67
2024/01/15 08:41:49;;;;;;;8.00;4.10;;;2.90;98.00;;;;;;5054903;28;20449;-66
2024/01/15 08:44:20;;;;;;;9.63;4.13;;;2.60;98.00;;;;;;5054782;28;20458;-66
2024/01/15 08:46:47;;;;;;;12.77;4.07;;;2.40;98.00;;;;;;5054944;28;20548;-67
2024/01/15 08:49:14;;;;;;;11.10;4.50;;;2.30;98.00;;;;;;5053591;28;20459;-67
2024/01/15 08:51:41;;;;;;;11.73;4.10;;;2.10;98.00;;;;;;5054839;28;20485;-67
2024/01/15 08:54:09;;;;;;;7.20;3.13;;;2.10;98.00;;;;;;5054622;28;20471;-67
2024/01/15 08:56:36;;;;;;;9.67;4.13;;;2.10;98.00;;;;;;5054832;28;20453;-67
2024/01/15 08:59:03;;;;;;;11.90;3.50;;;2.10;98.00;;;;;;5053387;28;20516;-66
2024/01/15 09:01:32;;;;;;;11.83;4.20;;;2.10;98.00;;;;;;5054728;28;20805;-66
2024/01/15 09:03:59;;;;;;;9.53;4.07;;;2.10;98.00;;;;;;5054488;28;20935;-67
2024/01/15 09:06:26;;;;;;;6.70;3.60;;;2.00;98.00;;;;;;5054628;28;20453;-67
2024/01/15 09:08:53;;;;;;;10.43;3.97;;;2.00;98.00;;;;;;5054559;28;20541;-66
2024/01/15 09:11:20;;;;;;;6.43;3.30;;;1.90;98.00;;;;;;5054478;28;20493;-66
2024/01/15 09:13:47;;;;;;;13.20;4.10;;;1.90;98.00;;;;;;5054551;28;20456;-67
2024/01/15 09:16:14;;;;;;;7.70;3.37;;;2.00;98.00;;;;;;5054510;28;20959;-66
2024/01/15 09:18:44;;;;;;;7.67;3.53;;;2.00;98.00;;;;;;5054173;28;20454;-66
2024/01/15 09:21:11;;;;;;;7.73;3.43;;;1.90;98.00;;;;;;5054359;28;20438;-68
2024/01/15 09:23:40;;;;;;;9.00;3.73;;;1.90;98.00;;;;;;5053540;28;20825;-66
2024/01/15 09:26:09;;;;;;;10.17;4.10;;;1.90;98.00;;;;;;5054250;28;20476;-66
2024/01/15 09:28:36;;;;;;;6.87;3.23;;;1.90;98.00;;;;;;5054041;28;20562;-67
2024/01/15 09:31:03;;;;;;;7.53;3.60;;;1.90;98.00;;;;;;5053959;28;20482;-67
2024/01/15 09:33:30;;;;;;;8.80;4.10;;;2.00;98.00;;;;;;5053585;28;20449;-67
2024/01/15 09:36:03;;;;;;;6.77;3.23;;;2.00;98.00;;;;;;5053865;28;20457;-67
2024/01/15 09:38:31;;;;;;;12.13;4.00;;;2.10;98.00;;;;;;5053863;28;20458;-67
2024/01/15 09:40:59;;;;;;;8.90;3.77;;;2.10;98.00;;;;;;5053870;28;20447;-67
2024/01/15 09:43:26;;;;;;;8.13;3.77;;;2.10;98.00;;;;;;5052788;28;20572;-67
2024/01/15 09:45:54;;;;;;;12.13;3.40;;;2.20;98.00;;;;;;5053483;28;20727;-67
2024/01/15 09:48:21;;;;;;;6.50;3.00;;;2.20;98.00;;;;;;5053368;28;20457;-66
2024/01/15 09:50:49;;;;;;;11.80;4.10;;;2.30;98.00;;;;;;5053522;28;20489;-67
2024/01/15 09:53:18;;;;;;;8.43;3.40;;;2.30;98.00;;;;;;5053440;28;20446;-66
2024/01/15 09:55:46;;;;;;;11.57;3.40;;;2.20;98.00;;;;;;5053456;28;20523;-67
2024/01/15 09:58:14;;;;;;;9.77;3.30;;;2.30;98.00;;;;;;5052237;28;20487;-67
2024/01/15 10:00:43;;;;;;;5.23;2.73;;;2.30;98.00;;;;;;5053581;28;20453;-67
2024/01/15 10:03:12;;;;;;;7.30;3.63;;;2.30;98.00;;;;;;5053258;28;20446;-67
2024/01/15 10:05:39;;;;;;;7.73;3.33;;;2.30;98.00;;;;;;5053342;28;20544;-68
2024/01/15 10:08:06;;;;;;;6.70;3.23;;;2.40;98.00;;;;;;5053329;28;20450;-67
2024/01/15 10:10:37;;;;;;;7.57;3.43;;;2.40;98.00;;;;;;5053095;28;20955;-67
2024/01/15 10:13:06;;;;;;;5.97;2.67;;;2.40;98.00;;;;;;5052932;28;20450;-67
2024/01/15 10:15:36;;;;;;;6.17;3.43;;;2.30;98.00;;;;;;5053271;28;20462;-67
2024/01/15 10:18:04;;;;;;;7.90;3.40;;;2.40;98.00;;;;;;5051512;28;20468;-68
2024/01/15 10:20:33;;;;;;;7.40;3.77;;;2.40;98.00;;;;;;5051232;28;20508;-66
2024/01/15 10:23:00;;;;;;;6.40;3.10;;;2.40;98.00;;;;;;5051755;28;20535;-67
2024/01/15 10:25:27;;;;;;;8.23;3.10;;;2.40;98.00;;;;;;5052594;28;20966;-66
2024/01/15 10:28:03;;;;;;;5.80;2.97;;;2.50;98.00;;;;;;5051966;28;20456;-66
2024/01/15 10:30:30;;;;;;;13.20;4.00;;;2.60;98.00;;;;;;5052543;28;21029;-67
2024/01/15 10:33:01;;;;;;;7.70;3.07;;;2.70;98.00;;;;;;5052776;28;20459;-68
2024/01/15 10:35:30;;;;;;;9.00;3.63;;;2.60;98.00;;;;;;5051377;28;20458;-68
2024/01/15 10:37:57;;;;;;;10.30;3.63;;;2.60;98.00;;;;;;5051665;28;20442;-67
2024/01/15 10:40:24;;;;;;;6.90;3.47;;;2.50;98.00;;;;;;5052722;28;20461;-67
2024/01/15 10:42:51;;;;;;;7.30;3.03;;;2.50;98.00;;;;;;5052548;28;20469;-67
2024/01/15 10:45:20;;;;;;;8.40;3.23;;;2.50;98.00;;;;;;5052680;28;20551;-67
2024/01/15 10:47:48;;;;;;;9.90;3.47;;;2.60;98.00;;;;;;5051629;28;20450;-67
2024/01/15 10:50:16;;;;;;;5.80;2.77;;;2.60;98.00;;;;;;5051664;28;20452;-69
2024/01/15 10:52:44;;;;;;;9.20;3.10;;;2.60;98.00;;;;;;5051770;28;20549;-69
2024/01/15 10:55:11;;;;;;;6.67;3.07;;;2.50;98.00;;;;;;5051496;28;20461;-68
2024/01/15 10:57:39;;;;;;;6.07;3.07;;;2.50;98.00;;;;;;5052501;28;20453;-67
2024/01/15 11:00:14;;;;;;;6.97;3.03;;;2.50;98.00;;;;;;5051994;28;20494;-67
2024/01/15 11:02:44;;;;;;;5.33;2.57;;;2.60;98.00;;;;;;5052319;28;20441;-67
2024/01/15 11:05:11;;;;;;;7.40;3.00;;;2.60;98.00;;;;;;5052685;28;20494;-67
2024/01/15 11:07:42;;;;;;;5.70;2.87;;;2.60;98.00;;;;;;5052365;28;20454;-67
2024/01/15 11:10:40;;;;;;;7.97;3.23;;;2.60;98.00;;;;;;5052454;28;20457;-67
2024/01/15 11:13:10;;;;;;;8.33;3.07;;;2.70;98.00;;;;;;5052197;28;20541;-68
2024/01/15 11:16:01;;;;;;;4.60;2.70;;;2.70;98.00;;;;;;5052171;28;20456;-67
2024/01/15 11:18:31;;;;;;;6.07;3.37;;;2.60;98.00;;;;;;5051774;28;20535;-68
2024/01/15 11:21:23;;;;;;;9.13;3.10;;;2.60;98.00;;;;;;5051863;28;20441;-67
2024/01/15 11:23:52;;;;;;;4.53;2.73;;;2.60;98.00;;;;;;5052016;28;20476;-67
2024/01/15 11:26:35;;;;;;;5.40;3.03;;;2.60;98.00;;;;;;5051963;28;20449;-68
2024/01/15 11:29:05;;;;;;;6.53;3.13;;;2.60;98.00;;;;;;5049815;28;20489;-67
2024/01/15 11:32:04;;;;;;;11.43;3.20;;;2.60;98.00;;;;;;5051602;28;20532;-68
2024/01/15 11:34:58;;;;;;;6.23;3.20;;;2.60;98.00;;;;;;5051811;28;21070;-67
2024/01/15 11:37:27;;;;;;;5.57;2.87;;;2.60;98.00;;;;;;5051813;28;20515;-68
2024/01/15 11:39:54;;;;;;;5.23;2.73;;;2.50;98.00;;;;;;5051625;28;20450;-68
2024/01/15 11:42:24;;;;;;;5.80;2.90;;;2.50;98.00;;;;;;5051553;28;20453;-67
2024/01/15 11:44:52;;;;;;;7.63;3.63;;;2.40;98.00;;;;;;5050763;28;20540;-67
2024/01/15 11:47:48;;;;;;;6.00;2.87;;;2.40;98.00;;;;;;5050530;28;20879;-68
2024/01/15 11:50:16;;;;;;;6.60;2.97;;;2.30;98.00;;;;;;5051380;28;20461;-66
2024/01/15 11:52:47;;;;;;;5.60;2.80;;;2.40;98.00;;;;;;5051527;28;20493;-67
2024/01/15 11:55:20;;;;;;;5.07;2.67;;;2.50;98.00;;;;;;5051728;28;20848;-67
2024/01/15 11:57:51;;;;;;;14.83;3.10;;;2.50;98.00;;;;;;5051656;28;20872;-68
2024/01/15 12:00:18;;;;;;;9.07;3.30;;;2.50;98.00;;;;;;5051583;28;20454;-67
2024/01/15 12:02:46;;;;;;;8.30;3.50;;;2.40;98.00;;;;;;5051506;28;21001;-68
2024/01/15 12:05:32;;;;;;;8.03;3.10;;;2.30;98.00;;;;;;5052044;28;20511;-67
2024/01/15 12:08:00;;;;;;;10.00;3.40;;;2.30;98.00;;;;;;5055489;28;20954;-68
2024/01/15 12:10:31;;;;;;;7.57;3.60;;;2.30;98.00;;;;;;5055427;28;20943;-67
2024/01/15 12:13:00;;;;;;;7.27;3.23;;;2.30;98.00;;;;;;5055188;28;20494;-68
2024/01/15 12:15:28;;;;;;;6.10;3.13;;;2.40;98.00;;;;;;5055447;28;20956;-67
2024/01/15 12:17:57;;;;;;;6.00;2.93;;;2.40;98.00;;;;;;5055322;28;20492;-68
2024/01/15 12:20:25;;;;;;;7.90;3.10;;;2.40;98.00;;;;;;5055380;28;20453;-67
2024/01/15 12:22:52;;;;;;;6.27;3.03;;;2.30;98.00;;;;;;5055439;28;20446;-68
2024/01/15 12:25:20;;;;;;;7.47;3.27;;;2.30;98.00;;;;;;5054155;28;20449;-67
2024/01/15 12:27:48;;;;;;;6.03;3.40;;;2.20;98.00;;;;;;5055181;28;20450;-68
2024/01/15 12:30:16;;;;;;;5.20;2.60;;;2.30;98.00;;;;;;5055275;28;20452;-68
2024/01/15 12:32:43;;;;;;;7.10;3.20;;;2.20;98.00;;;;;;5055117;28;21051;-67
2024/01/15 12:35:11;;;;;;;8.90;3.53;;;2.10;98.00;;;;;;5055225;28;20865;-67
2024/01/15 12:37:39;;;;;;;7.30;3.37;;;2.10;98.00;;;;;;5055243;28;20469;-66
2024/01/15 12:40:09;;;;;;;5.77;2.60;;;2.10;98.00;;;;;;5055039;28;20591;-67
2024/01/15 12:42:38;;;;;;;7.33;3.30;;;2.10;98.00;;;;;;5055052;28;20453;-66
2024/01/15 12:45:08;;;;;;;8.57;3.50;;;2.10;98.00;;;;;;5054829;28;20450;-68
2024/01/15 12:47:35;;;;;;;5.63;3.20;;;2.10;98.00;;;;;;5055091;28;20522;-67
2024/01/15 12:50:02;;;;;;;3.63;2.70;;;2.10;98.00;;;;;;5053200;28;20969;-67
2024/01/15 12:52:31;;;;;;;10.93;3.53;;;2.00;98.00;;;;;;5054241;28;20492;-67
2024/01/15 12:54:58;;;;;;;5.17;3.17;;;1.90;98.00;;;;;;5054540;28;20461;-67